KDEH/DEH METAR and TAF weather

Enter ICAO airport designator
Station Type Date Time Source
KDEH METAR 2020/03/29 20:35 UTC NOAA

KDEH 292035Z AUTO 31013G30KT 10SM 05/03 A2973 RMK AO2


Station Type Date Time Source
KDEH Decoded METAR 2020/03/29 20:35 UTC NOAA

Decorah, IA, United States (KDEH) 43-17N 091-44W
Mar 29, 2020 - 04:35 PM EDT / 2020.03.29 2035 UTC
Wind: from the NW (310 degrees) at 15 MPH (13 KT) gusting to 35 MPH (30 KT):0
Visibility: 10 mile(s):0
Temperature: 41 F (5 C)
Dew Point: 37 F (3 C)
Relative Humidity: 86%
Pressure (altimeter): 29.73 in. Hg (1006 hPa)
ob: KDEH 292035Z AUTO 31013G30KT 10SM 05/03 A2973 RMK AO2
cycle: 20

Station Type Date Time Source
KDEH TAF UTC NOAA

Error!

Example: see airport list